createdAt,value
2023-01-29T09:30:32.916Z,8.45
2023-01-29T09:33:02.203Z,10.77
2023-01-29T09:35:31.171Z,12.75
2023-01-29T09:38:00.283Z,11.85
2023-01-29T09:40:37.001Z,16.63
2023-01-29T09:43:12.082Z,13.05
2023-01-29T09:48:15.038Z,12.05
2023-01-29T09:51:19.620Z,14.43
2023-01-29T09:53:53.644Z,14.52
2023-01-29T09:56:28.954Z,12.73
2023-01-29T09:59:01.529Z,11.77
2023-01-29T10:01:38.737Z,12.75
2023-01-29T10:04:53.556Z,10.50
2023-01-29T10:07:39.851Z,11.00
2023-01-29T10:10:35.481Z,10.85
2023-01-29T10:13:15.134Z,12.82
2023-01-29T10:16:09.432Z,17.92
2023-01-29T10:19:12.598Z,14.93
2023-01-29T10:22:07.737Z,12.98
2023-01-29T10:24:40.072Z,15.82
2023-01-29T10:27:16.006Z,12.13
2023-01-29T10:29:47.165Z,13.48
2023-01-29T10:32:19.214Z,15.45
2023-01-29T10:34:53.962Z,13.85
2023-01-29T10:37:25.273Z,14.65
2023-01-29T10:39:54.081Z,13.88
2023-01-29T10:42:32.356Z,11.43
2023-01-29T10:45:21.059Z,13.38
2023-01-29T10:48:09.488Z,27.40
2023-01-29T10:51:02.475Z,13.60
2023-01-29T10:53:53.884Z,14.30
2023-01-29T10:56:40.923Z,11.23
2023-01-29T10:59:20.632Z,16.58
2023-01-29T11:01:52.604Z,16.15
2023-01-29T11:04:22.167Z,13.23
2023-01-29T11:06:52.884Z,13.30
2023-01-29T11:12:47.920Z,13.63
2023-01-29T11:15:21.681Z,12.27
2023-01-29T11:18:10.965Z,13.27
2023-01-29T11:20:39.999Z,13.52
2023-01-29T11:24:21.354Z,14.40
2023-01-29T11:27:18.438Z,14.07
2023-01-29T11:30:17.965Z,13.45
2023-01-29T11:32:53.284Z,11.57
2023-01-29T11:37:54.599Z,14.07
2023-01-29T11:40:56.002Z,13.20
2023-01-29T11:43:31.500Z,12.48
2023-01-29T11:46:07.024Z,14.02
2023-01-29T11:49:09.931Z,15.27
2023-01-29T11:51:54.715Z,16.38
2023-01-29T11:54:28.760Z,12.52
2023-01-29T11:57:00.005Z,12.73
2023-01-29T11:59:42.533Z,12.70
2023-01-29T12:02:29.793Z,13.70
2023-01-29T12:05:09.925Z,13.25
2023-01-29T12:07:43.842Z,11.18
2023-01-29T12:10:37.403Z,10.00
2023-01-29T12:17:12.013Z,14.90
2023-01-29T12:19:45.725Z,10.68
2023-01-29T12:22:22.817Z,12.30
2023-01-29T12:24:59.060Z,11.32
2023-01-29T12:27:41.294Z,11.18
2023-01-29T12:31:02.137Z,10.57
2023-01-29T12:33:42.593Z,11.23
2023-01-29T12:36:19.041Z,11.00
2023-01-29T12:38:48.208Z,8.98
2023-01-29T12:41:40.241Z,12.10
2023-01-29T12:44:15.843Z,10.35
2023-01-29T12:46:53.300Z,9.45
2023-01-29T12:49:26.642Z,10.00
2023-01-29T12:52:05.555Z,9.57
2023-01-29T12:54:39.681Z,8.90
2023-01-29T12:57:27.644Z,10.77
2023-01-29T13:00:07.162Z,10.23
2023-01-29T13:02:42.022Z,10.70
2023-01-29T13:05:34.045Z,9.88
2023-01-29T13:08:21.582Z,9.68
2023-01-29T13:11:38.308Z,7.78
2023-01-29T13:14:14.999Z,10.32
2023-01-29T13:17:15.401Z,9.43
2023-01-29T13:19:49.635Z,8.30
2023-01-29T13:22:39.204Z,10.68
2023-01-29T13:25:14.006Z,8.38
2023-01-29T13:28:22.087Z,8.15
2023-01-29T13:37:29.076Z,10.02
2023-01-29T13:40:23.124Z,9.32
2023-01-29T13:42:54.492Z,9.90
2023-01-29T13:45:26.113Z,9.05
2023-01-29T13:47:58.446Z,9.82
2023-01-29T13:50:38.884Z,9.32
2023-01-29T13:53:21.568Z,12.20
2023-01-29T13:56:45.458Z,10.00
2023-01-29T13:59:36.199Z,9.75
2023-01-29T14:02:34.881Z,14.98
2023-01-29T14:05:41.218Z,9.65
2023-01-29T14:08:47.691Z,10.65
2023-01-29T14:11:36.021Z,10.20
2023-01-29T14:17:33.320Z,12.90
2023-01-29T14:20:07.313Z,12.13
2023-01-29T14:22:36.409Z,12.65
2023-01-29T14:25:23.696Z,11.02
2023-01-29T14:27:52.754Z,10.52
2023-01-29T14:30:31.228Z,12.07
2023-01-29T14:33:02.323Z,11.85
2023-01-29T14:35:39.285Z,13.63
2023-01-29T14:38:09.018Z,12.07
2023-01-29T14:40:55.594Z,11.40
2023-01-29T14:43:24.480Z,11.02
2023-01-29T14:45:56.381Z,10.60
2023-01-29T14:48:48.848Z,11.57
2023-01-29T14:51:19.364Z,14.75
2023-01-29T14:53:58.880Z,12.82
2023-01-29T14:56:34.934Z,11.05
2023-01-29T14:59:59.645Z,14.70
2023-01-29T15:02:37.460Z,12.55
2023-01-29T15:05:28.332Z,13.70
2023-01-29T15:08:02.201Z,12.65
2023-01-29T15:10:41.903Z,17.67
2023-01-29T15:13:30.003Z,15.38
2023-01-29T15:16:16.222Z,13.05
2023-01-29T15:18:45.625Z,11.85
2023-01-29T15:21:15.928Z,15.15
2023-01-29T15:23:45.676Z,11.85
2023-01-29T15:26:19.749Z,16.77
2023-01-29T15:29:03.285Z,17.02
2023-01-29T15:31:33.650Z,13.48
2023-01-29T15:34:06.557Z,14.30
2023-01-29T15:36:40.052Z,15.45
2023-01-29T15:39:18.082Z,15.63
2023-01-29T15:41:56.524Z,14.90
2023-01-29T15:44:30.041Z,20.33
2023-01-29T15:47:02.620Z,17.90
2023-01-29T15:49:34.955Z,17.08
2023-01-29T15:52:07.802Z,15.85
2023-01-29T15:54:37.624Z,16.67
2023-01-29T15:57:07.405Z,15.38
2023-01-29T15:59:44.934Z,21.23
2023-01-29T16:02:40.432Z,17.88
2023-01-29T16:05:15.491Z,17.88
2023-01-29T16:07:45.562Z,22.95
2023-01-29T16:10:20.432Z,18.63
2023-01-29T16:12:52.701Z,25.15
2023-01-29T16:15:40.430Z,19.52
2023-01-29T16:18:22.962Z,21.35
2023-01-29T16:20:53.891Z,19.70
2023-01-29T16:23:27.841Z,22.13
2023-01-29T16:26:02.921Z,28.02
2023-01-29T16:28:32.432Z,23.60
2023-01-29T16:31:04.493Z,24.90
2023-01-29T16:33:37.060Z,21.08
2023-01-29T16:36:12.193Z,21.05
2023-01-29T16:38:44.491Z,20.98
2023-01-29T16:41:29.226Z,22.58
2023-01-29T16:43:59.768Z,20.05
2023-01-29T16:46:36.031Z,20.63
2023-01-29T16:49:21.831Z,20.95
2023-01-29T16:51:50.561Z,21.17
2023-01-29T16:54:23.845Z,18.77
2023-01-29T16:56:56.033Z,21.05
2023-01-29T16:59:33.121Z,21.65
2023-01-29T17:02:03.961Z,23.45
2023-01-29T17:04:32.874Z,23.67
2023-01-29T17:07:03.884Z,22.02
2023-01-29T17:09:35.524Z,22.38
2023-01-29T17:12:07.572Z,26.30
2023-01-29T17:14:38.884Z,24.20
2023-01-29T17:17:16.270Z,21.95
2023-01-29T17:19:45.233Z,23.75
2023-01-29T17:22:15.102Z,23.25
2023-01-29T17:24:47.037Z,26.13
2023-01-29T17:27:23.056Z,26.75
2023-01-29T17:30:00.425Z,23.83
2023-01-29T17:32:43.990Z,23.83
2023-01-29T17:35:29.204Z,25.80
2023-01-29T18:18:03.001Z,34.58
2023-01-29T18:20:36.734Z,28.60
2023-01-29T18:23:06.814Z,31.58
2023-01-29T18:25:35.778Z,30.67
2023-01-29T18:28:04.992Z,32.03
2023-01-29T18:30:34.024Z,33.08
2023-01-29T18:33:04.022Z,35.50
2023-01-29T18:35:32.509Z,30.88
2023-01-29T18:38:01.072Z,35.92
2023-01-29T18:40:29.942Z,30.45
2023-01-29T18:43:00.939Z,40.20
2023-01-29T18:45:29.897Z,30.10
2023-01-29T18:47:58.873Z,32.05
2023-01-29T18:50:29.207Z,32.35
2023-01-29T18:52:57.847Z,31.67
2023-01-29T18:55:27.123Z,28.25
2023-01-29T18:58:28.537Z,35.10
2023-01-29T19:00:44.473Z,26.90
2023-01-29T19:03:12.955Z,39.47
2023-01-29T19:05:42.791Z,28.40
2023-01-29T19:08:11.606Z,31.13
2023-01-29T19:10:40.657Z,31.58
2023-01-29T19:13:09.943Z,31.83
2023-01-29T19:15:38.424Z,28.83
2023-01-29T19:18:07.029Z,25.02
2023-01-29T19:20:35.487Z,33.25
2023-01-29T19:23:05.354Z,31.95
2023-01-29T19:25:37.247Z,35.45
